Currituck — AEFR — position and weather

sailwx.info

Track history (hours):
 
Tides and Currents Weather Stations Pressure Air Temp Water Temp Dewpoint Dewpoint Depression Visibility Wind Speed Wind Dir Waves Ship Positions

Currituck

Last reported at 2018-Jun-22 09:00 UTC. Time now 2018-Jun-22 09:20 UTC.
Position N 38°57' W 074°53'.

Length 45 m; draft 2 m.

Type: Dredging. MMSI: 369970446.

Date/timePositionNaut miles runAvg speedWind from/ knotsBaromVisibWave heightAir tempDewpointWater temp
2018-Jun-22 09:00N 38°57' W 074°53'4 4.1
2018-Jun-22 07:59N 38°57' W 074°48'4 8.3
2018-Jun-22 07:29N 38°60' W 074°44'4 7.8
2018-Jun-22 07:01N 39°02' W 074°40'4 7.7
2018-Jun-22 06:30N 39°05' W 074°37'5 7.1
2018-Jun-22 05:50N 39°08' W 074°33'4 6.5
2018-Jun-22 05:14N 39°12' W 074°30'2 8.2
2018-Jun-22 05:00N 39°13' W 074°28'27 8.8
2018-Jun-22 01:56N 39°36' W 074°09'4 8.5
2018-Jun-22 01:30N 39°39' W 074°07'4 8.3
2018-Jun-22 00:59N 39°43' W 074°05'5 8.3
2018-Jun-22 00:25N 39°47' W 074°03'  
2018-Jun-18 11:05N 40°06' W 074°02'1 0.2
2018-Jun-18 07:15N 40°07' W 074°02'1 1.7
2018-Jun-18 06:55N 40°06' W 074°02'0 0.0
2018-Jun-17 18:47N 40°06' W 074°02'0 0.2
2018-Jun-17 18:14N 40°06' W 074°02'30 6.0
2018-Jun-17 13:18N 40°36' W 074°03'3 8.1
2018-Jun-17 12:56N 40°39' W 074°03'2 0.8
2018-Jun-17 10:09N 40°41' W 074°04'0 0.0
2018-Jun-17 09:42N 40°41' W 074°04'0 0.0
2018-Jun-17 09:28N 40°41' W 074°04'0 0.0
2018-Jun-17 08:55N 40°41' W 074°04'0 0.0
2018-Jun-17 06:37N 40°41' W 074°04'0 0.0
2018-Jun-17 06:28N 40°41' W 074°04'0 0.0
2018-Jun-17 06:00N 40°41' W 074°04'2 3.1
2018-Jun-17 05:30N 40°41' W 074°02'4 7.6
2018-Jun-17 05:00N 40°43' W 073°58'62 4.8
2018-Jun-16 16:05N 41°10' W 072°44'1 8.7
2018-Jun-16 16:00N 41°10' W 072°43'5 9.2
2018-Jun-16 15:30N 41°11' W 072°37'5 9.5
2018-Jun-16 15:00N 41°11' W 072°31'510.1
2018-Jun-16 14:30N 41°12' W 072°24'6 9.8
2018-Jun-16 13:56N 41°13' W 072°17'104 4.9
2018-Jun-15 16:55N 42°20' W 070°30'4 9.1
2018-Jun-15 16:30N 42°23' W 070°30'4 8.9
2018-Jun-15 16:00N 42°28' W 070°31'4 9.0
2018-Jun-15 15:30N 42°32' W 070°31'5 8.9
2018-Jun-15 15:00N 42°37' W 070°31'4 8.9
2018-Jun-15 14:30N 42°41' W 070°32'4 8.7
2018-Jun-15 14:00N 42°45' W 070°32'4 8.8
2018-Jun-15 13:30N 42°50' W 070°31'  
Track history (hours):
 
Tides and Currents Weather Stations Pressure Air Temp Water Temp Dewpoint Dewpoint Depression Visibility Wind Speed Wind Dir Waves Ship Positions

Currituck

Last reported at 2018-Jun-22 09:00 UTC. Time now 2018-Jun-22 09:20 UTC.
Position N 38°57' W 074°53'.

Length 45 m; draft 2 m.

Type: Dredging. MMSI: 369970446.

Date/timePositionNaut miles runAvg speedWind from/ knotsBaromVisibWave heightAir tempDewpointWater temp
2018-Jun-22 09:00N 38°57' W 074°53'4 4.1
2018-Jun-22 07:59N 38°57' W 074°48'4 8.3
2018-Jun-22 07:29N 38°60' W 074°44'4 7.8
2018-Jun-22 07:01N 39°02' W 074°40'4 7.7
2018-Jun-22 06:30N 39°05' W 074°37'5 7.1
2018-Jun-22 05:50N 39°08' W 074°33'4 6.5
2018-Jun-22 05:14N 39°12' W 074°30'2 8.2
2018-Jun-22 05:00N 39°13' W 074°28'27 8.8
2018-Jun-22 01:56N 39°36' W 074°09'4 8.5
2018-Jun-22 01:30N 39°39' W 074°07'4 8.3
2018-Jun-22 00:59N 39°43' W 074°05'5 8.3
2018-Jun-22 00:25N 39°47' W 074°03'  
2018-Jun-18 11:05N 40°06' W 074°02'1 0.2
2018-Jun-18 07:15N 40°07' W 074°02'1 1.7
2018-Jun-18 06:55N 40°06' W 074°02'0 0.0
2018-Jun-17 18:47N 40°06' W 074°02'0 0.2
2018-Jun-17 18:14N 40°06' W 074°02'30 6.0
2018-Jun-17 13:18N 40°36' W 074°03'3 8.1
2018-Jun-17 12:56N 40°39' W 074°03'2 0.8
2018-Jun-17 10:09N 40°41' W 074°04'0 0.0
2018-Jun-17 09:42N 40°41' W 074°04'0 0.0
2018-Jun-17 09:28N 40°41' W 074°04'0 0.0
2018-Jun-17 08:55N 40°41' W 074°04'0 0.0
2018-Jun-17 06:37N 40°41' W 074°04'0 0.0
2018-Jun-17 06:28N 40°41' W 074°04'0 0.0
2018-Jun-17 06:00N 40°41' W 074°04'2 3.1
2018-Jun-17 05:30N 40°41' W 074°02'4 7.6
2018-Jun-17 05:00N 40°43' W 073°58'62 4.8
2018-Jun-16 16:05N 41°10' W 072°44'1 8.7
2018-Jun-16 16:00N 41°10' W 072°43'5 9.2
2018-Jun-16 15:30N 41°11' W 072°37'5 9.5
2018-Jun-16 15:00N 41°11' W 072°31'510.1
2018-Jun-16 14:30N 41°12' W 072°24'6 9.8
2018-Jun-16 13:56N 41°13' W 072°17'104 4.9
2018-Jun-15 16:55N 42°20' W 070°30'4 9.1
2018-Jun-15 16:30N 42°23' W 070°30'4 8.9
2018-Jun-15 16:00N 42°28' W 070°31'4 9.0
2018-Jun-15 15:30N 42°32' W 070°31'5 8.9
2018-Jun-15 15:00N 42°37' W 070°31'4 8.9
2018-Jun-15 14:30N 42°41' W 070°32'4 8.7
2018-Jun-15 14:00N 42°45' W 070°32'4 8.8
2018-Jun-15 13:30N 42°50' W 070°31'  

Dump ship's entire track history